createdAt,value
2023-02-09T00:00:34.588Z,5.70
2023-02-09T00:03:04.407Z,5.10
2023-02-09T00:05:34.246Z,5.53
2023-02-09T00:08:07.046Z,4.60
2023-02-09T00:10:36.839Z,4.93
2023-02-09T00:13:19.150Z,4.90
2023-02-09T00:15:52.091Z,4.87
2023-02-09T00:18:22.832Z,4.90
2023-02-09T00:20:58.676Z,5.00
2023-02-09T00:23:32.087Z,4.77
2023-02-09T00:26:02.973Z,5.20
2023-02-09T00:28:33.505Z,5.43
2023-02-09T00:31:03.385Z,5.80
2023-02-09T00:33:33.133Z,5.13
2023-02-09T00:36:02.905Z,5.53
2023-02-09T00:38:35.362Z,4.53
2023-02-09T00:41:06.089Z,4.80
2023-02-09T00:43:37.163Z,4.90
2023-02-09T00:46:07.159Z,5.13
2023-02-09T00:48:37.276Z,5.40
2023-02-09T00:51:08.286Z,5.73
2023-02-09T00:53:40.654Z,4.97
2023-02-09T00:56:10.551Z,5.27
2023-02-09T00:58:40.365Z,4.90
2023-02-09T01:01:13.654Z,5.80
2023-02-09T01:03:44.026Z,4.97
2023-02-09T01:06:14.014Z,4.90
2023-02-09T01:08:46.439Z,5.23
2023-02-09T01:11:18.488Z,5.30
2023-02-09T01:13:48.907Z,5.33
2023-02-09T01:16:20.725Z,6.13
2023-02-09T01:18:50.577Z,5.47
2023-02-09T01:21:22.470Z,5.33
2023-02-09T01:23:57.344Z,5.93
2023-02-09T01:26:27.233Z,5.23
2023-02-09T01:28:57.839Z,5.10
2023-02-09T01:31:30.592Z,5.03
2023-02-09T01:34:03.123Z,5.80
2023-02-09T01:36:34.225Z,5.87
2023-02-09T01:39:06.998Z,5.70
2023-02-09T01:41:37.797Z,5.97
2023-02-09T01:44:10.526Z,5.33
2023-02-09T01:46:40.963Z,5.93
2023-02-09T01:49:14.365Z,5.67
2023-02-09T01:51:48.051Z,5.70
2023-02-09T01:54:25.118Z,6.10
2023-02-09T01:57:00.807Z,6.10
2023-02-09T01:59:31.474Z,5.80
2023-02-09T02:02:01.398Z,6.13
2023-02-09T02:04:31.641Z,5.43
2023-02-09T02:07:11.324Z,5.37
2023-02-09T02:09:43.776Z,5.93
2023-02-09T02:12:13.704Z,6.33
2023-02-09T02:14:43.632Z,6.50
2023-02-09T02:17:28.032Z,6.00
2023-02-09T02:20:23.699Z,6.67
2023-02-09T02:23:03.366Z,6.10
2023-02-09T02:26:02.912Z,6.57
2023-02-09T02:29:15.826Z,6.00
2023-02-09T02:32:12.861Z,6.30
2023-02-09T02:34:48.479Z,5.87
2023-02-09T02:37:30.060Z,6.17
2023-02-09T02:40:08.875Z,6.07
2023-02-09T02:42:54.752Z,6.67
2023-02-09T02:45:35.710Z,6.53
2023-02-09T02:48:21.442Z,7.00
2023-02-09T02:50:57.688Z,6.77
2023-02-09T02:53:32.366Z,6.70
2023-02-09T02:56:08.406Z,6.87
2023-02-09T02:58:42.029Z,6.50
2023-02-09T03:01:16.121Z,7.10
2023-02-09T03:03:50.378Z,6.70
2023-02-09T03:06:21.311Z,7.07
2023-02-09T03:08:53.509Z,6.50
2023-02-09T03:11:25.237Z,6.40
2023-02-09T03:14:07.931Z,6.60
2023-02-09T03:16:47.342Z,6.83
2023-02-09T03:19:27.953Z,6.37
2023-02-09T03:22:01.653Z,7.20
2023-02-09T03:24:39.774Z,7.17
2023-02-09T03:27:18.316Z,6.30
2023-02-09T03:29:50.864Z,6.03
2023-02-09T03:32:22.727Z,7.20
2023-02-09T03:34:55.595Z,6.53
2023-02-09T03:37:26.263Z,6.30
2023-02-09T03:39:56.088Z,6.23
2023-02-09T03:42:25.970Z,5.80
2023-02-09T03:44:55.784Z,6.27
2023-02-09T03:47:25.667Z,5.80
2023-02-09T03:49:58.196Z,6.03
2023-02-09T03:52:28.400Z,6.20
2023-02-09T03:54:58.196Z,6.33
2023-02-09T03:57:28.271Z,6.93
2023-02-09T03:59:58.090Z,6.80
2023-02-09T04:02:28.014Z,6.23
2023-02-09T04:05:00.727Z,6.77
2023-02-09T04:07:30.859Z,6.90
2023-02-09T04:10:00.703Z,6.67
2023-02-09T04:12:30.599Z,6.97
2023-02-09T04:15:00.500Z,6.80
2023-02-09T04:17:30.406Z,6.57
2023-02-09T04:20:02.855Z,6.33
2023-02-09T04:22:32.739Z,6.33
2023-02-09T04:25:02.559Z,5.90
2023-02-09T04:27:32.372Z,6.90
2023-02-09T04:30:02.213Z,6.60
2023-02-09T04:32:32.438Z,6.20
2023-02-09T04:35:04.873Z,6.73
2023-02-09T04:37:34.794Z,6.70
2023-02-09T04:40:06.783Z,6.23
2023-02-09T04:42:37.505Z,6.20
2023-02-09T04:45:08.839Z,6.00
2023-02-09T04:47:38.819Z,7.27
2023-02-09T04:50:12.062Z,6.93
2023-02-09T04:52:42.209Z,6.07
2023-02-09T04:55:12.141Z,6.63
2023-02-09T04:57:54.414Z,6.37
2023-02-09T05:00:24.657Z,6.37
2023-02-09T05:02:54.515Z,6.50
2023-02-09T05:05:27.008Z,6.50
2023-02-09T05:07:56.910Z,6.30
2023-02-09T05:10:26.924Z,6.20
2023-02-09T05:12:56.810Z,6.07
2023-02-09T05:15:26.778Z,6.60
2023-02-09T05:17:56.735Z,6.17
2023-02-09T05:20:29.233Z,5.83
2023-02-09T05:22:59.101Z,6.17
2023-02-09T05:25:29.318Z,7.30
2023-02-09T05:27:59.258Z,6.30
2023-02-09T05:30:29.536Z,6.17
2023-02-09T05:32:59.423Z,6.43
2023-02-09T05:35:32.001Z,6.07
2023-02-09T05:38:01.818Z,6.07
2023-02-09T05:40:31.766Z,6.30
2023-02-09T05:43:03.543Z,6.70
2023-02-09T05:45:33.401Z,6.13
2023-02-09T05:48:03.266Z,6.20
2023-02-09T05:50:36.216Z,6.80
2023-02-09T05:53:06.322Z,6.13
2023-02-09T05:55:36.130Z,6.00
2023-02-09T05:58:06.015Z,6.30
2023-02-09T06:00:35.842Z,6.03
2023-02-09T06:03:05.737Z,6.43
2023-02-09T06:05:38.151Z,6.07
2023-02-09T06:08:08.096Z,6.70
2023-02-09T06:10:37.867Z,6.10
2023-02-09T06:13:07.710Z,6.07
2023-02-09T06:15:37.509Z,6.40
2023-02-09T06:18:07.728Z,6.30
2023-02-09T06:20:40.350Z,6.03
2023-02-09T06:23:10.146Z,6.47
2023-02-09T06:25:41.738Z,6.37
2023-02-09T06:28:11.581Z,6.50
2023-02-09T06:30:41.475Z,5.87
2023-02-09T06:33:11.366Z,6.67
2023-02-09T06:35:43.750Z,5.93
2023-02-09T06:38:13.874Z,6.80
2023-02-09T06:40:43.925Z,6.90
2023-02-09T06:43:13.982Z,6.87
2023-02-09T06:45:44.367Z,6.57
2023-02-09T06:48:14.177Z,6.97
2023-02-09T06:50:47.017Z,6.13
2023-02-09T06:53:18.824Z,6.20
2023-02-09T06:55:48.778Z,6.93
2023-02-09T06:58:18.545Z,6.93
2023-02-09T07:00:48.515Z,6.47
2023-02-09T07:03:18.416Z,7.67
2023-02-09T07:05:50.828Z,5.87
2023-02-09T07:08:20.585Z,7.07
2023-02-09T07:10:50.457Z,6.30
2023-02-09T07:13:20.271Z,6.43
2023-02-09T07:15:58.008Z,6.40
2023-02-09T07:18:27.911Z,6.77
2023-02-09T07:21:02.148Z,6.50
2023-02-09T07:23:32.479Z,7.03
2023-02-09T07:26:06.159Z,6.83
2023-02-09T07:28:37.637Z,7.13
2023-02-09T07:31:09.254Z,6.77
2023-02-09T07:33:40.057Z,5.93
2023-02-09T07:36:15.706Z,8.13
2023-02-09T07:38:46.253Z,7.10
2023-02-09T07:41:19.775Z,7.20
2023-02-09T07:43:50.282Z,7.40
2023-02-09T07:46:23.462Z,7.90
2023-02-09T07:48:53.307Z,7.67
2023-02-09T07:51:26.784Z,6.97
2023-02-09T07:53:57.700Z,7.13
2023-02-09T07:56:28.136Z,7.30
2023-02-09T07:58:59.023Z,7.40
2023-02-09T08:01:29.351Z,8.07
2023-02-09T08:03:59.164Z,7.90
2023-02-09T08:06:42.415Z,7.10
2023-02-09T08:09:14.460Z,7.13
2023-02-09T08:11:50.157Z,7.20
2023-02-09T08:14:23.633Z,7.70
2023-02-09T08:17:16.221Z,7.90
2023-02-09T08:19:46.858Z,7.33
2023-02-09T08:22:22.440Z,13.67
2023-02-09T08:24:53.609Z,8.27
2023-02-09T08:27:23.538Z,8.40
2023-02-09T08:29:53.544Z,7.70
2023-02-09T08:32:23.347Z,7.90
2023-02-09T08:34:53.251Z,8.37
2023-02-09T08:37:25.608Z,8.50
2023-02-09T08:39:55.432Z,8.53
2023-02-09T08:42:25.227Z,7.33
2023-02-09T08:44:54.973Z,7.93
2023-02-09T08:47:24.731Z,8.20
2023-02-09T08:49:54.485Z,7.67
2023-02-09T08:52:26.834Z,8.07
2023-02-09T08:54:56.620Z,8.20
2023-02-09T08:57:41.653Z,7.67
2023-02-09T09:00:14.351Z,9.20
2023-02-09T09:02:44.153Z,8.53
2023-02-09T09:05:13.964Z,8.70
2023-02-09T09:07:46.370Z,9.50
2023-02-09T09:10:16.161Z,9.13
2023-02-09T09:12:45.986Z,9.57
2023-02-09T09:15:15.782Z,10.00
2023-02-09T09:17:45.555Z,9.37
2023-02-09T09:20:16.079Z,10.73
2023-02-09T09:22:48.480Z,9.67
2023-02-09T09:25:18.751Z,9.70
2023-02-09T09:27:48.561Z,9.87
2023-02-09T09:30:18.415Z,10.07
2023-02-09T09:32:48.236Z,10.47
2023-02-09T09:48:54.405Z,9.83
2023-02-09T09:51:30.438Z,10.07
2023-02-09T09:54:02.416Z,10.17
2023-02-09T09:56:33.341Z,10.47
2023-02-09T09:59:04.853Z,10.20
2023-02-09T10:01:35.891Z,10.80
2023-02-09T10:04:14.748Z,10.97
2023-02-09T10:06:46.976Z,10.93
2023-02-09T10:09:27.254Z,10.77
2023-02-09T10:12:08.384Z,11.40
2023-02-09T10:14:38.115Z,11.77
2023-02-09T10:17:09.016Z,12.07
2023-02-09T10:19:41.456Z,12.10
2023-02-09T10:22:15.684Z,12.53
2023-02-09T10:24:45.425Z,12.07
2023-02-09T10:27:22.396Z,16.00
2023-02-09T10:29:52.153Z,13.37
2023-02-09T10:32:23.902Z,13.50
2023-02-09T10:34:58.012Z,13.83
2023-02-09T10:37:35.910Z,15.73
2023-02-09T10:40:15.643Z,16.83
2023-02-09T10:42:56.772Z,17.87
2023-02-09T10:45:29.954Z,15.97
2023-02-09T10:48:01.703Z,15.93
2023-02-09T10:50:34.147Z,15.40
2023-02-09T10:53:05.750Z,14.87
2023-02-09T10:55:39.456Z,14.90
2023-02-09T10:58:17.514Z,14.63
2023-02-09T11:00:53.784Z,14.63
2023-02-09T11:03:27.958Z,15.67
2023-02-09T11:06:06.222Z,14.37
2023-02-09T11:08:43.266Z,13.40
2023-02-09T11:11:28.773Z,12.57
2023-02-09T11:13:58.852Z,12.73
2023-02-09T11:17:06.986Z,11.63
2023-02-09T11:19:57.463Z,11.10
2023-02-09T11:22:50.319Z,11.60
2023-02-09T11:25:26.074Z,11.87
2023-02-09T11:28:21.630Z,11.67
2023-02-09T11:31:14.586Z,12.20
2023-02-09T11:33:51.763Z,10.90
2023-02-09T11:36:44.190Z,12.07
2023-02-09T11:39:23.087Z,11.10
2023-02-09T11:42:13.479Z,11.80
2023-02-09T11:44:49.648Z,11.70
2023-02-09T11:47:25.537Z,12.00
2023-02-09T11:49:57.067Z,12.23
2023-02-09T11:52:34.350Z,12.63
2023-02-09T11:55:20.988Z,13.13
2023-02-09T11:57:55.766Z,12.00
2023-02-09T12:00:30.439Z,11.33
2023-02-09T12:03:05.038Z,11.00
2023-02-09T12:05:35.129Z,12.23
2023-02-09T12:08:22.475Z,12.57
2023-02-09T12:11:04.206Z,12.33
2023-02-09T12:13:43.287Z,11.07
2023-02-09T12:16:19.072Z,10.87
2023-02-09T12:18:49.311Z,11.50
2023-02-09T12:21:32.575Z,11.87
2023-02-09T12:24:03.379Z,11.63
2023-02-09T12:26:46.765Z,12.43
2023-02-09T12:29:35.867Z,11.73
2023-02-09T12:32:30.879Z,13.00
2023-02-09T12:35:27.279Z,12.63
2023-02-09T12:38:17.232Z,11.93
2023-02-09T12:41:04.914Z,11.53
2023-02-09T12:43:38.854Z,11.23
2023-02-09T12:46:51.992Z,12.63
2023-02-09T12:49:25.591Z,12.43
2023-02-09T12:52:16.681Z,12.67
2023-02-09T12:54:50.367Z,12.20
2023-02-09T12:57:56.106Z,12.60
2023-02-09T13:00:54.839Z,12.00
2023-02-09T13:03:27.788Z,12.37
2023-02-09T13:06:01.517Z,13.23
2023-02-09T13:08:38.783Z,13.20
2023-02-09T13:11:21.253Z,13.30
2023-02-09T13:13:56.202Z,13.03
2023-02-09T13:16:57.715Z,12.60
2023-02-09T13:19:55.895Z,12.50
2023-02-09T13:22:38.146Z,11.63
2023-02-09T13:25:16.662Z,13.40
2023-02-09T13:27:48.214Z,13.73
2023-02-09T13:30:28.235Z,14.17
2023-02-09T13:33:10.707Z,13.00
2023-02-09T13:35:54.755Z,13.10
2023-02-09T13:38:24.741Z,13.10
2023-02-09T13:40:55.597Z,14.47
2023-02-09T13:43:31.276Z,13.10
2023-02-09T13:46:02.580Z,14.30
2023-02-09T13:48:37.871Z,14.23
2023-02-09T13:51:17.486Z,13.50
2023-02-09T13:53:59.150Z,14.80
2023-02-09T13:56:29.661Z,14.57
2023-02-09T13:59:00.253Z,13.80
2023-02-09T14:01:33.265Z,14.53
2023-02-09T14:04:10.706Z,14.30
2023-02-09T14:06:44.335Z,14.80
2023-02-09T14:09:20.238Z,14.40
2023-02-09T14:11:54.119Z,15.03
2023-02-09T14:14:28.771Z,14.37
2023-02-09T14:17:24.698Z,14.57
2023-02-09T14:19:59.489Z,14.60
2023-02-09T14:22:34.539Z,14.77
2023-02-09T14:25:19.994Z,14.97
2023-02-09T14:27:51.250Z,14.27
2023-02-09T14:30:23.833Z,15.03
2023-02-09T14:32:58.804Z,15.23
2023-02-09T14:35:33.686Z,16.40
2023-02-09T14:38:05.211Z,16.10
2023-02-09T14:40:37.574Z,14.97
2023-02-09T14:43:25.179Z,14.80
2023-02-09T14:46:01.934Z,15.83
2023-02-09T14:48:33.135Z,15.83
2023-02-09T14:51:15.584Z,15.43
2023-02-09T14:53:47.138Z,16.87
2023-02-09T14:56:24.603Z,16.17
2023-02-09T14:58:54.527Z,15.20
2023-02-09T15:01:25.123Z,15.80
2023-02-09T15:03:54.990Z,16.17
2023-02-09T15:06:33.156Z,17.30
2023-02-09T15:09:05.305Z,15.10
2023-02-09T15:11:48.343Z,14.63
2023-02-09T15:14:18.960Z,15.27
2023-02-09T15:16:49.621Z,14.53
2023-02-09T15:19:23.555Z,15.03
2023-02-09T15:22:06.659Z,14.33
2023-02-09T15:24:39.164Z,15.07
2023-02-09T15:27:09.384Z,16.30
2023-02-09T15:29:39.161Z,15.20
2023-02-09T15:32:17.040Z,16.30
2023-02-09T15:34:47.508Z,15.93
2023-02-09T15:37:24.675Z,16.70
2023-02-09T15:39:59.455Z,15.20
2023-02-09T15:42:41.629Z,15.63
2023-02-09T15:45:34.790Z,15.83
2023-02-09T15:48:04.682Z,16.00
2023-02-09T15:50:35.614Z,16.63
2023-02-09T15:53:11.081Z,16.83
2023-02-09T15:55:42.632Z,17.93
2023-02-09T15:58:16.872Z,16.00
2023-02-09T16:00:47.046Z,15.47
2023-02-09T16:03:20.561Z,16.17
2023-02-09T16:05:53.809Z,16.40
2023-02-09T16:08:28.533Z,16.07
2023-02-09T16:10:58.343Z,16.63
2023-02-09T16:13:28.276Z,16.67
2023-02-09T16:16:11.117Z,15.57
2023-02-09T16:18:46.024Z,14.97
2023-02-09T16:21:22.838Z,15.37
2023-02-09T16:23:57.621Z,15.93
2023-02-09T16:26:29.715Z,15.03
2023-02-09T16:29:01.303Z,16.23
2023-02-09T16:31:34.703Z,14.67
2023-02-09T16:34:04.638Z,15.07
2023-02-09T16:36:34.794Z,14.80
2023-02-09T16:39:09.465Z,15.70
2023-02-09T16:41:51.680Z,16.60
2023-02-09T16:44:23.755Z,15.73
2023-02-09T16:46:56.631Z,17.03
2023-02-09T16:49:37.688Z,14.77
2023-02-09T16:52:16.959Z,17.47
2023-02-09T16:54:52.039Z,17.07
2023-02-09T16:57:25.410Z,16.83
2023-02-09T16:59:56.201Z,17.63
2023-02-09T17:02:51.962Z,15.67
2023-02-09T17:05:24.695Z,16.00
2023-02-09T17:07:56.721Z,15.93
2023-02-09T17:10:32.575Z,16.20
2023-02-09T17:13:04.813Z,15.83
2023-02-09T17:15:40.145Z,18.07
2023-02-09T17:18:12.396Z,17.17
2023-02-09T17:20:46.694Z,19.57
2023-02-09T17:23:23.261Z,19.97
2023-02-09T17:25:57.424Z,21.53
2023-02-09T17:28:28.504Z,16.97
2023-02-09T17:31:00.919Z,15.23
2023-02-09T17:33:34.448Z,15.10
2023-02-09T17:38:55.627Z,16.23
2023-02-09T17:41:33.116Z,16.23
2023-02-09T17:44:24.324Z,16.00
2023-02-09T17:46:59.076Z,16.97
2023-02-09T17:49:28.999Z,16.13
2023-02-09T17:51:58.799Z,17.23
2023-02-09T17:54:32.674Z,17.77
2023-02-09T17:57:05.721Z,17.30
2023-02-09T17:59:35.500Z,17.27
2023-02-09T18:02:05.571Z,16.13
2023-02-09T18:04:35.430Z,16.97
2023-02-09T18:07:05.270Z,16.10
2023-02-09T18:09:35.051Z,16.60
2023-02-09T18:12:16.727Z,16.13
2023-02-09T18:14:46.539Z,16.10
2023-02-09T18:17:16.789Z,15.70
2023-02-09T18:19:46.527Z,14.83
2023-02-09T18:22:20.040Z,15.70
2023-02-09T18:24:50.888Z,15.53
2023-02-09T18:27:25.734Z,14.37
2023-02-09T18:29:55.608Z,15.13
2023-02-09T18:32:25.788Z,15.50
2023-02-09T18:34:55.560Z,15.73
2023-02-09T18:37:25.685Z,14.17
2023-02-09T18:39:55.559Z,14.93
2023-02-09T18:42:28.321Z,14.27
2023-02-09T18:44:58.363Z,15.03
2023-02-09T18:47:28.162Z,15.23
2023-02-09T18:49:57.979Z,16.17
2023-02-09T18:52:28.051Z,15.00
2023-02-09T18:54:58.104Z,15.67
2023-02-09T18:57:30.697Z,14.83
2023-02-09T19:00:01.711Z,14.50
2023-02-09T19:02:31.622Z,15.13
2023-02-09T19:05:02.834Z,13.47
2023-02-09T19:07:32.711Z,13.40
2023-02-09T19:10:02.588Z,14.03
2023-02-09T19:12:35.348Z,14.17
2023-02-09T19:15:05.260Z,14.03
2023-02-09T19:17:35.044Z,14.63
2023-02-09T19:20:05.792Z,13.37
2023-02-09T19:22:35.597Z,14.90
2023-02-09T19:25:05.449Z,13.63
2023-02-09T19:27:38.488Z,13.17
2023-02-09T19:30:08.919Z,13.13
2023-02-09T19:32:39.332Z,12.63
2023-02-09T19:35:09.978Z,12.13
2023-02-09T19:37:41.992Z,11.67
2023-02-09T19:40:21.195Z,11.33
2023-02-09T19:42:53.555Z,10.87
2023-02-09T19:45:23.495Z,11.00
2023-02-09T19:47:53.292Z,10.03
2023-02-09T19:50:23.097Z,10.37
2023-02-09T19:52:53.218Z,10.53
2023-02-09T19:55:23.008Z,10.30
2023-02-09T19:57:55.467Z,10.07
2023-02-09T20:00:25.591Z,9.57
2023-02-09T20:02:55.434Z,8.77
2023-02-09T20:05:25.267Z,8.97
2023-02-09T20:07:55.036Z,9.03
2023-02-09T20:10:25.401Z,7.60
2023-02-09T20:12:57.868Z,8.27
2023-02-09T20:15:27.886Z,8.10
2023-02-09T20:17:57.981Z,7.53
2023-02-09T20:20:27.721Z,7.67
2023-02-09T20:22:57.526Z,7.03
2023-02-09T20:25:27.392Z,7.40
2023-02-09T20:28:00.092Z,6.47
2023-02-09T20:30:29.918Z,6.17
2023-02-09T20:32:59.687Z,6.37
2023-02-09T20:35:29.884Z,6.43
2023-02-09T20:37:59.682Z,6.87
2023-02-09T20:40:30.975Z,5.37
2023-02-09T20:43:15.731Z,6.33
2023-02-09T20:45:58.033Z,5.90
2023-02-09T20:48:27.891Z,5.83
2023-02-09T20:50:57.648Z,5.53
2023-02-09T20:53:27.420Z,5.63
2023-02-09T20:55:58.703Z,5.07
2023-02-09T20:58:31.066Z,6.30
2023-02-09T21:01:00.834Z,5.90
2023-02-09T21:03:30.683Z,6.20
2023-02-09T21:06:00.456Z,5.83
2023-02-09T21:08:30.238Z,5.67
2023-02-09T21:11:01.570Z,7.27
2023-02-09T21:13:33.998Z,6.13
2023-02-09T21:16:04.295Z,6.23
2023-02-09T21:18:34.157Z,5.40
2023-02-09T21:21:05.999Z,6.00
2023-02-09T21:23:36.007Z,5.20
2023-02-09T21:26:06.967Z,5.10
2023-02-09T21:28:39.763Z,4.67
2023-02-09T21:31:12.791Z,4.97
2023-02-09T21:33:42.906Z,4.87
2023-02-09T21:36:13.072Z,4.10
2023-02-09T21:38:44.203Z,4.53
2023-02-09T21:41:35.981Z,4.20
2023-02-09T21:44:10.032Z,4.63
2023-02-09T21:46:39.964Z,4.93
2023-02-09T21:49:09.801Z,4.33
2023-02-09T21:51:39.696Z,4.17
2023-02-09T21:54:09.602Z,3.73
2023-02-09T21:56:39.346Z,5.03
2023-02-09T21:59:12.238Z,4.13
2023-02-09T22:01:42.685Z,3.80
2023-02-09T22:04:12.651Z,3.80
2023-02-09T22:06:42.518Z,4.00
2023-02-09T22:09:12.284Z,4.13
2023-02-09T22:11:42.348Z,3.47
2023-02-09T22:14:14.765Z,3.30
2023-02-09T22:16:46.839Z,3.50
2023-02-09T22:19:16.840Z,3.17
2023-02-09T22:21:46.641Z,3.40
2023-02-09T22:24:17.544Z,3.60
2023-02-09T22:26:47.690Z,3.30
2023-02-09T22:29:20.661Z,3.30
2023-02-09T22:31:50.765Z,3.20
2023-02-09T22:34:20.600Z,3.37
2023-02-09T22:36:54.265Z,3.37
2023-02-09T22:39:24.959Z,3.40
2023-02-09T22:41:58.914Z,3.43
2023-02-09T22:44:32.295Z,3.13
2023-02-09T22:47:02.109Z,3.40
2023-02-09T22:49:31.975Z,3.30
2023-02-09T22:52:01.789Z,3.60
2023-02-09T22:54:31.597Z,3.27
2023-02-09T22:57:01.418Z,2.60
2023-02-09T22:59:36.313Z,3.17
2023-02-09T23:02:06.446Z,2.90
2023-02-09T23:04:36.258Z,2.60
2023-02-09T23:07:06.932Z,3.03
2023-02-09T23:09:36.813Z,3.30
2023-02-09T23:12:06.901Z,2.70
2023-02-09T23:14:39.334Z,3.00
2023-02-09T23:17:09.102Z,3.40
2023-02-09T23:19:40.645Z,3.93
2023-02-09T23:22:10.448Z,3.17
2023-02-09T23:24:40.244Z,2.40
2023-02-09T23:27:10.002Z,4.47
2023-02-09T23:29:42.785Z,2.77
2023-02-09T23:32:12.584Z,3.17
2023-02-09T23:34:42.382Z,3.40
2023-02-09T23:37:18.670Z,3.63
2023-02-09T23:39:58.445Z,4.00
2023-02-09T23:42:28.207Z,3.27
2023-02-09T23:45:00.598Z,3.73
2023-02-09T23:47:30.366Z,3.37
2023-02-09T23:50:00.196Z,3.80
2023-02-09T23:52:30.388Z,3.70
2023-02-09T23:55:00.257Z,3.50
2023-02-09T23:57:31.160Z,3.50
